Thunder radar more information blitzortung!


Radar de pluja more information rain snow radar


Visita la nostra xarxa de llocs de meteo:

Template documentation
and downloads

And another site



No particular awareness of the weather is required.    There are no Weather-warnings

Pagina Historial Weather Underground text

Diari Resum January 6, 2016 Unitats:  Mètric    Imperial   Tant
« Previous Dia
SegĂźent Dia »
Diari Setmana Mensual Anual Personalitzada
  Maxima: Minima: Media:
Temperatura: 12.7 °C 6.6 °C 9.4 °C
Punt de rosada: 1.4 °C -1.8 °C -0.8 °C
Humitat: 58 % 44 % 49 %
Wind Speed: 18.5 km/h 0.0 km/h 8.6 km/h
RĂ fegues de vent: 22.5 km/h - -
Vent:- - West
Pression baro: 1011.7 hPa 1007.0 hPa -
Precipitacions: 0.0 mm    
Historical Graphs
 
 
Dades de taula per January 6, 2016
Temps Temperatura Punt de rosada Pression baro Vent Wind Speed RĂ fegues de vent Humitat Rainfall Rate (Hourly)
00:00 7.7 °C -1.1 °C 1008.0 hPa WSW 7.4 km/h 7.4 km/h 54 % 0.0 mm
00:05 7.7 °C -1.1 °C 1008.0 hPa West 1.6 km/h 8.0 km/h 54 % 0.0 mm
00:10 7.7 °C -1.1 °C 1008.0 hPa WSW 3.2 km/h 4.8 km/h 54 % 0.0 mm
00:14 7.5 °C -1.2 °C 1007.0 hPa WSW 5.6 km/h 5.6 km/h 54 % 0.0 mm
00:19 7.6 °C -1.1 °C 1007.0 hPa West 5.6 km/h 6.1 km/h 54 % 0.0 mm
00:24 7.5 °C -1.2 °C 1007.0 hPa SW 3.7 km/h 3.7 km/h 54 % 0.0 mm
00:29 7.4 °C -1.3 °C 1007.0 hPa SW 3.9 km/h 5.0 km/h 54 % 0.0 mm
00:34 7.3 °C -1.4 °C 1007.0 hPa WNW 3.2 km/h 3.2 km/h 54 % 0.0 mm
00:40 7.3 °C -1.4 °C 1007.0 hPa WSW 1.9 km/h 3.2 km/h 54 % 0.0 mm
00:45 7.2 °C -1.5 °C 1007.0 hPa West 1.9 km/h   54 % 0.0 mm
00:50 7.1 °C -1.6 °C 1007.0 hPa West 2.3 km/h   54 % 0.0 mm
00:55 7.0 °C -1.7 °C 1007.0 hPa ESE 2.6 km/h   54 % 0.0 mm
01:00 6.9 °C -1.8 °C 1007.0 hPa WSW 1.9 km/h   54 % 0.0 mm
01:05 6.8 °C -1.6 °C 1007.0 hPa Calm   3.2 km/h 55 % 0.0 mm
01:10 6.7 °C -1.7 °C 1007.0 hPa SW 1.6 km/h 3.2 km/h 55 % 0.0 mm
01:15 6.6 °C -1.8 °C 1007.0 hPa South 1.9 km/h 2.6 km/h 55 % 0.0 mm
01:20 6.6 °C -1.8 °C 1007.0 hPa WSW 7.6 km/h 7.6 km/h 55 % 0.0 mm
01:25 6.7 °C -1.4 °C 1007.0 hPa SSW 7.4 km/h 7.4 km/h 56 % 0.0 mm
01:30 6.6 °C -1.6 °C 1007.0 hPa WSW 3.7 km/h 3.7 km/h 56 % 0.0 mm
01:35 6.6 °C -1.6 °C 1007.0 hPa WSW 5.6 km/h 5.6 km/h 56 % 0.0 mm
01:40 6.7 °C -1.4 °C 1007.0 hPa SW 3.7 km/h 3.7 km/h 56 % 0.0 mm
01:45 6.6 °C -1.6 °C 1007.0 hPa ENE 3.7 km/h 3.7 km/h 56 % 0.0 mm
01:50 6.6 °C -1.6 °C 1007.0 hPa West 2.6 km/h 4.2 km/h 56 % 0.0 mm
01:55 6.7 °C -1.2 °C 1007.0 hPa WSW 7.4 km/h 7.4 km/h 57 % 0.0 mm
02:00 6.7 °C -1.2 °C 1007.0 hPa West 4.7 km/h 5.8 km/h 57 % 0.0 mm
02:05 6.7 °C -1.2 °C 1007.0 hPa WSW 5.8 km/h 5.8 km/h 57 % 0.0 mm
02:10 6.7 °C -1.2 °C 1007.0 hPa WSW 14.8 km/h 14.8 km/h 57 % 0.0 mm
02:15 6.8 °C -1.1 °C 1007.0 hPa WNW 5.8 km/h 9.7 km/h 57 % 0.0 mm
02:20 6.8 °C -1.1 °C 1007.0 hPa WNW 5.8 km/h 9.7 km/h 57 % 0.0 mm
02:25 6.8 °C -1.1 °C 1007.0 hPa WNW 5.8 km/h 9.7 km/h 57 % 0.0 mm
02:30 6.8 °C -1.1 °C 1007.0 hPa WNW 9.0 km/h 9.0 km/h 57 % 0.0 mm
02:35 6.7 °C -1.2 °C 1007.0 hPa WNW 9.3 km/h 9.3 km/h 57 % 0.0 mm
02:40 6.7 °C -1.2 °C 1008.0 hPa WNW 9.3 km/h 9.3 km/h 57 % 0.0 mm
02:45 6.6 °C -1.1 °C 1008.0 hPa SW 11.1 km/h 11.1 km/h 58 % 0.0 mm
02:50 6.6 °C -1.1 °C 1008.0 hPa West 13.0 km/h 13.0 km/h 58 % 0.0 mm
13:45 11.9 °C 0.6 °C 1009.0 hPa West 11.3 km/h 11.3 km/h 46 % 0.0 mm
13:50 12.0 °C 0.7 °C 1009.0 hPa West 8.0 km/h 22.5 km/h 46 % 0.0 mm
13:55 12.0 °C 1.0 °C 1009.0 hPa West 4.8 km/h 16.1 km/h 47 % 0.0 mm
14:00 12.1 °C 1.1 °C 1010.0 hPa West 3.2 km/h 16.1 km/h 47 % 0.0 mm
14:05 12.2 °C 0.9 °C 1010.0 hPa SW 4.8 km/h 6.4 km/h 46 % 0.0 mm
14:10 12.4 °C 1.4 °C 1010.0 hPa NW 8.0 km/h 8.0 km/h 47 % 0.0 mm
14:15 12.5 °C 1.2 °C 1010.0 hPa NNE 8.0 km/h 8.0 km/h 46 % 0.0 mm
14:20 12.4 °C 1.1 °C 1010.0 hPa NNE 3.9 km/h 7.9 km/h 46 % 0.0 mm
14:25 12.6 °C 1.3 °C 1010.0 hPa WSW 10.0 km/h 10.0 km/h 46 % 0.0 mm
14:30 12.7 °C 1.4 °C 1010.0 hPa WSW 10.0 km/h 10.0 km/h 46 % 0.0 mm
14:35 12.7 °C 1.1 °C 1010.0 hPa NW 10.0 km/h 10.0 km/h 45 % 0.0 mm
14:40 12.4 °C 0.8 °C 1010.0 hPa NW 10.0 km/h 10.0 km/h 45 % 0.0 mm
14:45 12.3 °C 0.7 °C 1010.0 hPa WSW 9.3 km/h 9.3 km/h 45 % 0.0 mm
14:50 12.1 °C 0.5 °C 1010.0 hPa West 11.1 km/h 11.1 km/h 45 % 0.0 mm
14:55 12.2 °C 0.6 °C 1010.0 hPa West 11.1 km/h 11.1 km/h 45 % 0.0 mm
15:00 12.2 °C 0.6 °C 1010.0 hPa West 9.7 km/h 11.3 km/h 45 % 0.0 mm
15:05 12.0 °C 0.4 °C 1010.0 hPa West 11.1 km/h 11.1 km/h 45 % 0.0 mm
15:10 12.2 °C 0.6 °C 1010.0 hPa West 4.8 km/h 11.3 km/h 45 % 0.0 mm
15:15 12.2 °C 0.3 °C 1010.0 hPa West 4.8 km/h 8.0 km/h 44 % 0.0 mm
15:20 12.1 °C 0.2 °C 1010.0 hPa West 7.6 km/h 7.6 km/h 44 % 0.0 mm
15:25 12.0 °C 0.1 °C 1010.0 hPa West 12.9 km/h 19.3 km/h 44 % 0.0 mm
15:30 11.9 °C 0.0 °C 1010.0 hPa WSW 12.9 km/h 19.3 km/h 44 % 0.0 mm
15:35 11.8 °C -0.1 °C 1010.0 hPa WSW 12.9 km/h 19.3 km/h 44 % 0.0 mm
15:40 11.7 °C -0.2 °C 1009.7 hPa WSW 12.9 km/h 19.3 km/h 44 % 0.0 mm
15:45 11.5 °C -0.3 °C 1009.0 hPa WSW 18.5 km/h 18.5 km/h 44 % 0.0 mm
15:50 11.5 °C -0.3 °C 1009.0 hPa WSW 12.9 km/h 19.3 km/h 44 % 0.0 mm
15:55 11.3 °C -0.2 °C 1009.0 hPa WSW 12.9 km/h 19.3 km/h 45 % 0.0 mm
16:00 11.3 °C -0.2 °C 1010.0 hPa WSW 18.5 km/h 18.5 km/h 45 % 0.0 mm
16:05 11.3 °C -0.2 °C 1010.0 hPa WSW 18.5 km/h 18.5 km/h 45 % 0.0 mm
16:10 11.4 °C -0.1 °C 1010.0 hPa WSW 18.5 km/h 18.5 km/h 45 % 0.0 mm
16:15 11.5 °C -0.1 °C 1010.0 hPa WSW 18.5 km/h 18.5 km/h 45 % 0.0 mm
16:20 11.5 °C 0.0 °C 1010.0 hPa WSW 9.7 km/h 19.3 km/h 45 % 0.0 mm
16:25 11.5 °C -0.1 °C 1010.0 hPa WSW 9.7 km/h 14.5 km/h 45 % 0.0 mm
16:30 11.6 °C 0.1 °C 1010.0 hPa WSW 9.7 km/h 16.1 km/h 45 % 0.0 mm
16:35 11.9 °C 0.3 °C 1010.0 hPa WSW 8.0 km/h 16.1 km/h 45 % 0.0 mm
16:40 11.7 °C 0.2 °C 1010.0 hPa SW 11.1 km/h 11.1 km/h 45 % 0.0 mm
16:45 11.6 °C 0.1 °C 1010.0 hPa SW 9.7 km/h 11.3 km/h 45 % 0.0 mm
16:50 11.7 °C 0.2 °C 1010.0 hPa SW 9.7 km/h 11.3 km/h 45 % 0.0 mm
16:55 11.5 °C -0.1 °C 1010.0 hPa SW 11.1 km/h 11.1 km/h 45 % 0.0 mm
17:00 11.3 °C -0.2 °C 1010.0 hPa SW 11.1 km/h 11.1 km/h 45 % 0.0 mm
17:05 11.4 °C -0.1 °C 1010.0 hPa SW 11.1 km/h 11.1 km/h 45 % 0.0 mm
17:10 11.4 °C -0.1 °C 1010.7 hPa SW 11.1 km/h 11.1 km/h 45 % 0.0 mm
17:15 11.4 °C -0.1 °C 1010.7 hPa SW 9.7 km/h 11.3 km/h 45 % 0.0 mm
17:20 11.2 °C -0.3 °C 1010.7 hPa SW 9.7 km/h 11.3 km/h 45 % 0.0 mm
17:25 11.0 °C -0.5 °C 1011.7 hPa SW 11.1 km/h 11.1 km/h 45 % 0.0 mm
17:30 10.8 °C -0.7 °C 1011.7 hPa SW 11.1 km/h 11.1 km/h 45 % 0.0 mm
17:35 10.7 °C -0.8 °C 1011.7 hPa SW 11.1 km/h 11.1 km/h 45 % 0.0 mm
17:40 10.6 °C -0.8 °C 1011.7 hPa SW 11.1 km/h 11.1 km/h 45 % 0.0 mm
17:45 10.5 °C -0.7 °C 1011.7 hPa SW 11.1 km/h 11.1 km/h 46 % 0.0 mm
17:50 10.4 °C -0.7 °C 1011.7 hPa SW 11.1 km/h 11.1 km/h 46 % 0.0 mm
17:55 10.2 °C -0.9 °C 1011.7 hPa SW 9.7 km/h 11.3 km/h 46 % 0.0 mm
18:00 10.2 °C -0.9 °C 1010.7 hPa SW 9.7 km/h 11.3 km/h 46 % 0.0 mm
18:05 10.1 °C -1.0 °C 1010.7 hPa SW 9.7 km/h 11.3 km/h 46 % 0.0 mm
18:10 10.0 °C -1.1 °C 1011.1 hPa SW 9.7 km/h 11.3 km/h 46 % 0.0 mm
18:15 10.0 °C -1.1 °C 1011.7 hPa SW 11.1 km/h 11.1 km/h 46 % 0.0 mm
18:20 10.0 °C -0.8 °C 1011.7 hPa WNW 4.2 km/h 8.7 km/h 47 % 0.0 mm
18:25 9.9 °C -0.9 °C 1011.7 hPa WNW 4.2 km/h 8.7 km/h 47 % 0.0 mm
18:30 9.9 °C -0.9 °C 1011.7 hPa WNW 4.2 km/h 8.7 km/h 47 % 0.0 mm
18:35 9.9 °C -0.9 °C 1011.7 hPa WNW 4.2 km/h 8.7 km/h 47 % 0.0 mm
18:40 9.9 °C -0.9 °C 1011.7 hPa WNW 4.2 km/h 8.7 km/h 47 % 0.0 mm
18:45 9.8 °C -1.0 °C 1011.7 hPa SSW 5.6 km/h 6.4 km/h 47 % 0.0 mm
18:50 9.7 °C -1.1 °C 1011.7 hPa SSW 5.6 km/h 6.4 km/h 47 % 0.0 mm
18:55 9.8 °C -1.0 °C 1010.7 hPa SSW 5.6 km/h 6.4 km/h 47 % 0.0 mm
19:00 9.7 °C -1.1 °C 1010.7 hPa West 5.6 km/h 5.6 km/h 47 % 0.0 mm
19:05 9.6 °C -1.2 °C 1010.7 hPa West 2.6 km/h 3.5 km/h 47 % 0.0 mm
19:10 9.6 °C -1.2 °C 1010.7 hPa West 7.9 km/h 7.9 km/h 47 % 0.0 mm
19:15 9.6 °C -1.2 °C 1010.7 hPa West 7.9 km/h 7.9 km/h 47 % 0.0 mm
19:20 9.7 °C -1.1 °C 1010.7 hPa West 7.9 km/h 7.9 km/h 47 % 0.0 mm
19:25 9.8 °C -1.0 °C 1010.7 hPa West 7.9 km/h 7.9 km/h 47 % 0.0 mm
19:30 9.8 °C -1.0 °C 1011.7 hPa West 7.9 km/h 7.9 km/h 47 % 0.0 mm
19:35 9.7 °C -1.1 °C 1011.7 hPa West 7.9 km/h 7.9 km/h 47 % 0.0 mm
19:40 9.7 °C -1.1 °C 1011.7 hPa West 7.9 km/h 7.9 km/h 47 % 0.0 mm
19:45 9.7 °C -1.4 °C 1011.7 hPa West 7.9 km/h 7.9 km/h 46 % 0.0 mm
19:50 9.8 °C -1.3 °C 1011.7 hPa West 8.0 km/h 9.7 km/h 46 % 0.0 mm
19:55 9.7 °C -1.4 °C 1011.7 hPa WNW 8.0 km/h 9.7 km/h 46 % 0.0 mm
20:00 9.6 °C -1.4 °C 1011.7 hPa WNW 10.0 km/h 10.0 km/h 46 % 0.0 mm
20:05 9.6 °C -1.2 °C 1011.7 hPa WNW 10.0 km/h 10.0 km/h 47 % 0.0 mm
20:10 9.6 °C -1.2 °C 1011.7 hPa WNW 10.0 km/h 10.0 km/h 47 % 0.0 mm
20:15 9.6 °C -1.2 °C 1011.7 hPa WNW 10.0 km/h 10.0 km/h 47 % 0.0 mm
20:20 9.6 °C -1.2 °C 1011.7 hPa WNW 10.0 km/h 10.0 km/h 47 % 0.0 mm
20:25 9.5 °C -1.3 °C 1010.7 hPa WNW 10.0 km/h 10.0 km/h 47 % 0.0 mm
20:30 9.5 °C -1.3 °C 1010.7 hPa WNW 10.0 km/h 10.0 km/h 47 % 0.0 mm
20:35 9.4 °C -1.3 °C 1010.7 hPa WNW 10.0 km/h 10.0 km/h 47 % 0.0 mm
20:40 9.3 °C -1.2 °C 1011.7 hPa WNW 10.0 km/h 10.0 km/h 48 % 0.0 mm
20:45 9.2 °C -1.3 °C 1011.7 hPa WNW 10.0 km/h 10.0 km/h 48 % 0.0 mm
20:50 9.2 °C -1.3 °C 1011.7 hPa WNW 10.0 km/h 10.0 km/h 48 % 0.0 mm
20:55 9.1 °C -1.3 °C 1011.7 hPa WNW 8.0 km/h 9.7 km/h 48 % 0.0 mm
21:00 9.0 °C -1.4 °C 1011.7 hPa WNW 10.0 km/h 10.0 km/h 48 % 0.0 mm
21:05 8.9 °C -1.6 °C 1011.7 hPa WNW 10.0 km/h 10.0 km/h 48 % 0.0 mm
21:10 8.8 °C -1.6 °C 1011.7 hPa WNW 10.0 km/h 10.0 km/h 48 % 0.0 mm
21:15 8.8 °C -1.3 °C 1011.7 hPa WNW 10.0 km/h 10.0 km/h 49 % 0.0 mm
21:20 8.7 °C -1.4 °C 1011.7 hPa WNW 10.0 km/h 10.0 km/h 49 % 0.0 mm
21:25 8.7 °C -1.4 °C 1011.7 hPa WNW 10.0 km/h 10.0 km/h 49 % 0.0 mm
21:30 8.7 °C -1.4 °C 1011.7 hPa WNW 10.0 km/h 10.0 km/h 49 % 0.0 mm
21:35 8.6 °C -1.6 °C 1011.7 hPa WNW 8.0 km/h 9.7 km/h 49 % 0.0 mm
21:40 8.6 °C -1.3 °C 1011.7 hPa WNW 8.0 km/h 9.7 km/h 50 % 0.0 mm
21:45 8.6 °C -1.3 °C 1011.7 hPa WNW 10.0 km/h 10.0 km/h 50 % 0.0 mm
21:50 8.6 °C -1.3 °C 1011.7 hPa WNW 10.0 km/h 10.0 km/h 50 % 0.0 mm
21:55 8.5 °C -1.3 °C 1011.7 hPa WNW 10.0 km/h 10.0 km/h 50 % 0.0 mm
22:00 8.4 °C -1.2 °C 1011.7 hPa WNW 10.0 km/h 10.0 km/h 51 % 0.0 mm
22:05 8.5 °C -1.1 °C 1011.7 hPa WNW 10.0 km/h 10.0 km/h 51 % 0.0 mm
22:10 8.4 °C -1.2 °C 1011.7 hPa WNW 10.0 km/h 10.0 km/h 51 % 0.0 mm
22:15 8.4 °C -1.2 °C 1011.7 hPa WNW 10.0 km/h 10.0 km/h 51 % 0.0 mm
22:20 8.3 °C -1.3 °C 1011.7 hPa WNW 10.0 km/h 10.0 km/h 51 % 0.0 mm
22:25 8.2 °C -1.3 °C 1011.7 hPa WNW 10.0 km/h 10.0 km/h 51 % 0.0 mm
22:30 8.3 °C -1.0 °C 1011.7 hPa WNW 10.0 km/h 10.0 km/h 52 % 0.0 mm
22:35 8.3 °C -1.0 °C 1011.7 hPa WNW 10.0 km/h 10.0 km/h 52 % 0.0 mm
22:40 8.3 °C -1.0 °C 1010.7 hPa WNW 10.0 km/h 10.0 km/h 52 % 0.0 mm
22:45 8.3 °C -1.0 °C 1010.7 hPa WNW 8.0 km/h 9.7 km/h 52 % 0.0 mm
22:50 8.3 °C -1.0 °C 1010.7 hPa WNW 8.0 km/h 9.7 km/h 52 % 0.0 mm
22:55 8.3 °C -1.0 °C 1010.7 hPa WNW 8.0 km/h 9.7 km/h 52 % 0.0 mm
23:00 8.2 °C -1.1 °C 1010.7 hPa WNW 10.0 km/h 10.0 km/h 52 % 0.0 mm
23:05 8.2 °C -1.1 °C 1010.7 hPa WNW 10.0 km/h 10.0 km/h 52 % 0.0 mm
23:10 8.1 °C -1.2 °C 1010.7 hPa WNW 8.0 km/h 9.7 km/h 52 % 0.0 mm
23:15 8.1 °C -0.9 °C 1010.0 hPa WNW 10.0 km/h 10.0 km/h 53 % 0.0 mm
23:20 8.0 °C -1.0 °C 1010.0 hPa WNW 10.0 km/h 10.0 km/h 53 % 0.0 mm
23:25 8.0 °C -1.0 °C 1010.7 hPa WNW 10.0 km/h 10.0 km/h 53 % 0.0 mm
23:30 8.0 °C -1.0 °C 1010.7 hPa WNW 10.0 km/h 10.0 km/h 53 % 0.0 mm
23:35 8.0 °C -1.0 °C 1010.7 hPa WNW 10.0 km/h 10.0 km/h 53 % 0.0 mm
23:40 8.0 °C -0.8 °C 1010.0 hPa WNW 10.0 km/h 10.0 km/h 54 % 0.0 mm
23:45 8.1 °C -0.7 °C 1010.0 hPa WNW 10.0 km/h 10.0 km/h 54 % 0.0 mm
23:50 8.0 °C -0.8 °C 1010.0 hPa WNW 8.0 km/h 9.7 km/h 54 % 0.0 mm
Meteo Sesrovires
Elogis d' Weather Underground - 3.25 mb

Guio original per  Jim McMurry - jmcmurry@mwt.net Adaptat per a la plantilla per  Wim van der Kuil - Leuven-Template.eu

Trobareu la nostra informacio del temps tambe a:

Weather Underground

AWEKAS